Time;durP1;ratioP1;P1;durP2;ratioP2;P2;SDS_P1;SDS_P2;PMS_P1;PMS_P2;Temp;Humidity;BMP_temperature;BMP_pressure;BME280_temperature;BME280_humidity;BME280_pressure;Samples;Min_cycle;Max_cycle;Signal;HPM_P1;HPM_P2
2022/03/31 00:00:16;;;;;;;7.87;5.43;;;;;;;19.36;53.65;98490.38;5031296;28;20808;-62
2022/03/31 00:02:41;;;;;;;9.63;5.70;;;;;;;19.36;53.46;98481.00;5031533;28;20427;-62
2022/03/31 00:05:07;;;;;;;8.00;6.07;;;;;;;19.36;53.80;98484.63;5030756;28;20657;-62
2022/03/31 00:07:33;;;;;;;8.97;6.53;;;;;;;19.37;53.60;98482.59;5031886;28;20180;-62
2022/03/31 00:09:59;;;;;;;8.80;5.80;;;;;;;19.35;53.35;98483.03;5031569;28;20527;-62
2022/03/31 00:12:25;;;;;;;13.03;6.27;;;;;;;19.37;53.51;98480.53;5031758;28;20549;-62
2022/03/31 00:14:50;;;;;;;10.53;6.70;;;;;;;19.37;53.51;98480.53;5031551;28;20172;-62
2022/03/31 00:17:16;;;;;;;12.00;5.97;;;;;;;19.38;53.45;98485.03;5031514;28;20222;-62
2022/03/31 00:19:41;;;;;;;10.87;6.23;;;;;;;19.39;53.34;98482.97;5031481;28;20204;-62
2022/03/31 00:22:07;;;;;;;7.63;6.10;;;;;;;19.38;53.45;98479.31;5031504;28;20172;-62
2022/03/31 00:24:32;;;;;;;11.47;6.30;;;;;;;19.36;53.52;98481.78;5031556;28;20639;-62
2022/03/31 00:26:57;;;;;;;7.97;6.00;;;;;;;19.36;53.64;98476.06;5030943;28;20184;-62
2022/03/31 00:29:23;;;;;;;7.30;5.77;;;;;;;19.37;53.80;98466.22;5031502;28;20184;-62
2022/03/31 00:31:48;;;;;;;7.47;5.90;;;;;;;19.35;53.49;98456.44;5031145;28;20550;-62
2022/03/31 00:34:14;;;;;;;10.43;5.80;;;;;;;19.32;53.52;98455.25;5031547;28;20191;-62
2022/03/31 00:36:40;;;;;;;7.87;6.50;;;;;;;19.32;53.78;98443.81;5030869;28;20186;-62
2022/03/31 00:41:49;;;;;;;10.17;6.60;;;;;;;19.37;53.80;98451.13;5031023;28;20503;-62
2022/03/31 00:44:14;;;;;;;8.40;5.40;;;;;;;19.37;53.46;98456.84;5031531;28;20514;-62
2022/03/31 00:46:50;;;;;;;7.40;6.50;;;;;;;19.34;53.83;98458.53;5030841;28;20305;-62
2022/03/31 00:49:16;;;;;;;8.40;6.07;;;;;;;19.34;53.59;98449.13;5031449;28;20273;-62
2022/03/31 00:51:42;;;;;;;7.70;5.90;;;;;;;19.34;53.62;98452.78;5013407;28;21029;-62
2022/03/31 00:54:08;;;;;;;8.10;5.43;;;;;;;19.31;53.71;98459.38;5031134;28;20415;-62
2022/03/31 00:56:33;;;;;;;8.77;5.60;;;;;;;19.34;53.66;98451.97;5013160;28;20572;-62
2022/03/31 00:58:58;;;;;;;8.70;6.20;;;;;;;19.34;53.50;98444.22;5013539;28;20182;-62
2022/03/31 01:01:24;;;;;;;9.50;5.40;;;;;;;19.35;53.62;98448.69;5030328;28;20632;-62
2022/03/31 01:03:49;;;;;;;7.93;6.50;;;;;;;19.33;53.48;98436.88;5034686;28;20177;-62
2022/03/31 01:06:15;;;;;;;7.17;5.97;;;;;;;19.34;53.54;98429.91;5034803;28;20288;-62
2022/03/31 01:08:40;;;;;;;7.27;5.93;;;;;;;19.31;53.75;98425.03;5034912;28;20593;-62
2022/03/31 01:11:06;;;;;;;8.20;6.03;;;;;;;19.28;53.74;98425.91;5016875;28;20192;-62
2022/03/31 01:13:33;;;;;;;7.60;5.70;;;;;;;19.31;53.81;98419.31;5017631;28;20184;-62
2022/03/31 01:15:58;;;;;;;8.43;5.50;;;;;;;19.30;53.63;98426.28;5034766;28;20422;-62
2022/03/31 01:18:25;;;;;;;11.83;6.60;;;;;;;19.32;53.75;98425.84;5034855;28;20423;-62
2022/03/31 01:20:50;;;;;;;7.30;5.53;;;;;;;19.33;53.61;98421.75;5034401;28;20610;-62
2022/03/31 01:23:15;;;;;;;6.30;5.50;;;;;;;19.34;53.60;98421.31;5034890;28;20434;-62
2022/03/31 01:25:41;;;;;;;7.33;5.83;;;;;;;19.34;53.70;98417.63;5034239;28;20188;-62
2022/03/31 01:28:07;;;;;;;8.30;5.67;;;;;;;19.33;53.64;98416.03;5034739;28;20189;-62
2022/03/31 01:30:32;;;;;;;7.70;5.77;;;;;;;19.33;53.63;98413.16;5016710;28;20165;-62
2022/03/31 01:32:58;;;;;;;9.80;5.53;;;;;;;19.32;53.50;98409.47;5034488;28;20176;-62
2022/03/31 01:35:23;;;;;;;7.63;5.57;;;;;;;19.32;53.56;98408.69;5034350;28;20650;-62
2022/03/31 01:37:49;;;;;;;6.50;5.37;;;;;;;19.30;54.16;98406.25;5034237;28;20180;-62
2022/03/31 01:40:14;;;;;;;7.37;4.70;;;;;;;19.33;53.44;98405.41;5033994;28;20192;-62
2022/03/31 01:42:42;;;;;;;8.73;5.27;;;;;;;19.34;53.47;98407.00;5034186;28;20187;-62
2022/03/31 01:45:08;;;;;;;7.60;5.77;;;;;;;19.32;53.51;98402.97;5034667;28;20613;-62
2022/03/31 01:47:34;;;;;;;8.47;5.87;;;;;;;19.31;53.80;98399.28;5034068;28;20822;-62
2022/03/31 01:50:01;;;;;;;6.47;5.10;;;;;;;19.33;53.55;98399.69;5034124;28;20411;-62
2022/03/31 01:52:27;;;;;;;6.17;5.30;;;;;;;19.31;53.95;98399.28;5034036;28;20183;-62
2022/03/31 01:54:52;;;;;;;6.03;5.20;;;;;;;19.30;53.59;98400.53;5033861;28;20415;-62
2022/03/31 01:57:18;;;;;;;8.23;5.67;;;;;;;19.30;53.69;98394.81;5033985;28;20189;-62
2022/03/31 01:59:43;;;;;;;7.87;5.47;;;;;;;19.30;53.69;98388.25;5032583;28;20553;-62
2022/03/31 02:02:10;;;;;;;6.80;5.40;;;;;;;19.28;54.01;98385.84;5033627;28;20644;-62
2022/03/31 02:04:36;;;;;;;6.43;5.13;;;;;;;19.31;53.64;98389.91;5034070;28;20176;-62
2022/03/31 02:07:01;;;;;;;6.93;4.70;;;;;;;19.30;53.78;98385.41;5033525;28;20489;-62
2022/03/31 02:09:27;;;;;;;7.13;5.10;;;;;;;19.28;53.67;98373.59;5033888;28;20172;-62
2022/03/31 02:11:52;;;;;;;7.20;5.40;;;;;;;19.28;53.79;98373.59;5033754;28;20184;-62
2022/03/31 02:14:19;;;;;;;6.30;5.13;;;;;;;19.30;53.53;98371.09;5033183;28;20180;-62
2022/03/31 02:16:45;;;;;;;5.90;5.10;;;;;;;19.28;53.76;98362.97;5033348;28;20180;-62
2022/03/31 02:19:11;;;;;;;7.80;5.27;;;;;;;19.31;53.81;98355.56;5033713;28;20505;-62
2022/03/31 02:21:37;;;;;;;6.73;4.80;;;;;;;19.28;53.62;98348.66;5032230;28;20970;-62
2022/03/31 02:24:02;;;;;;;7.17;5.57;;;;;;;19.27;53.84;98357.69;5015864;28;20202;-62
2022/03/31 02:26:28;;;;;;;7.00;5.17;;;;;;;19.27;53.64;98351.94;5033285;28;20185;-62
2022/03/31 02:28:53;;;;;;;7.30;5.30;;;;;;;19.27;53.62;98347.03;5033483;28;20176;-62
2022/03/31 02:31:19;;;;;;;6.33;5.17;;;;;;;19.29;53.54;98347.41;5033054;28;20184;-62
2022/03/31 02:33:44;;;;;;;7.93;4.80;;;;;;;19.30;53.50;98349.03;5033568;28;20543;-62
2022/03/31 02:36:10;;;;;;;6.43;5.10;;;;;;;19.29;53.65;98338.84;5033063;28;20180;-62
2022/03/31 02:38:36;;;;;;;6.90;5.30;;;;;;;19.26;53.88;98338.91;5033289;28;20176;-62
2022/03/31 02:41:03;;;;;;;8.40;5.23;;;;;;;19.28;53.78;98337.22;5032929;28;20600;-62
2022/03/31 02:43:28;;;;;;;6.67;5.37;;;;;;;19.28;53.70;98348.66;5033431;28;20969;-62
2022/03/31 02:45:54;;;;;;;6.47;5.30;;;;;;;19.27;53.61;98338.44;5032992;28;20446;-62
2022/03/31 02:48:19;;;;;;;7.60;5.10;;;;;;;19.26;53.58;98336.81;5032582;28;20581;-62
2022/03/31 02:50:45;;;;;;;6.20;5.27;;;;;;;19.23;53.89;98334.84;5032757;28;20512;-62
2022/03/31 02:55:55;;;;;;;4.93;4.43;;;;;;;19.26;53.73;98330.31;5032934;28;20262;-62
2022/03/31 02:58:20;;;;;;;7.30;4.80;;;;;;;19.24;53.60;98333.59;5032615;28;20431;-62
2022/03/31 03:00:46;;;;;;;5.90;4.93;;;;;;;19.23;53.77;98323.41;5032741;28;20525;-62
2022/03/31 03:03:11;;;;;;;8.70;5.47;;;;;;;19.25;53.59;98329.50;5032351;28;20530;-62
2022/03/31 03:05:37;;;;;;;6.50;4.50;;;;;;;19.24;54.00;98325.03;5032460;28;20185;-62
2022/03/31 03:08:03;;;;;;;8.30;5.10;;;;;;;19.24;53.77;98327.88;5015028;28;20191;-62
2022/03/31 03:10:28;;;;;;;6.10;4.90;;;;;;;19.23;53.66;98320.53;5032805;28;20172;-62
2022/03/31 03:12:56;;;;;;;6.00;4.20;;;;;;;19.27;53.47;98324.13;5032662;28;20192;-62
2022/03/31 03:15:22;;;;;;;7.90;4.77;;;;;;;19.26;53.72;98318.88;5032079;28;20181;-62
2022/03/31 03:17:47;;;;;;;6.83;4.83;;;;;;;19.25;53.67;98317.22;5032213;28;20496;-62
2022/03/31 03:20:14;;;;;;;6.50;4.73;;;;;;;19.24;53.66;98316.44;5032246;28;20465;-62
2022/03/31 03:22:46;;;;;;;6.87;5.40;;;;;;;19.24;53.61;98322.16;5032542;28;20295;-62
2022/03/31 03:25:12;;;;;;;5.70;4.70;;;;;;;19.25;53.74;98309.47;5032016;28;20510;-62
2022/03/31 03:27:38;;;;;;;6.37;4.90;;;;;;;19.25;53.59;98306.59;5031758;28;20492;-62
2022/03/31 03:30:05;;;;;;;9.23;4.60;;;;;;;19.26;53.65;98313.94;5032322;28;20168;-62
2022/03/31 03:32:30;;;;;;;6.33;4.70;;;;;;;19.23;53.88;98306.25;5014039;28;20490;-62
2022/03/31 03:34:56;;;;;;;7.13;4.97;;;;;;;19.24;53.84;98307.03;5031591;28;20431;-62
2022/03/31 03:37:21;;;;;;;5.67;4.53;;;;;;;19.23;53.78;98306.25;5032165;28;20596;-62
2022/03/31 03:39:47;;;;;;;5.83;4.63;;;;;;;19.23;53.97;98303.38;5032143;28;20200;-62
2022/03/31 03:42:12;;;;;;;4.93;4.07;;;;;;;19.26;53.56;98319.66;5032046;28;20177;-62
2022/03/31 03:44:38;;;;;;;8.23;5.07;;;;;;;19.24;53.68;98313.56;5032072;28;20258;-62
2022/03/31 03:47:05;;;;;;;6.07;4.07;;;;;;;19.24;53.45;98316.44;5031765;28;20231;-62
2022/03/31 03:49:30;;;;;;;7.10;4.60;;;;;;;19.24;53.52;98307.03;5032214;28;20419;-62
2022/03/31 03:51:56;;;;;;;5.23;4.07;;;;;;;19.23;53.52;98303.38;5031800;28;20831;-62
2022/03/31 03:54:21;;;;;;;6.47;4.73;;;;;;;19.25;53.69;98305.78;5031922;28;20176;-62
2022/03/31 03:56:46;;;;;;;5.53;4.20;;;;;;;19.23;53.71;98314.00;5013226;28;20242;-62
2022/03/31 03:59:12;;;;;;;6.43;4.70;;;;;;;19.23;53.40;98309.09;5010053;28;20637;-62
2022/03/31 04:01:37;;;;;;;5.40;4.10;;;;;;;19.23;53.43;98309.09;5018287;28;20219;-62
2022/03/31 04:04:03;;;;;;;6.10;4.50;;;;;;;19.21;53.58;98311.53;5031516;28;20184;-62
2022/03/31 04:06:28;;;;;;;6.57;4.60;;;;;;;19.23;53.49;98309.09;5031832;28;20259;-62
2022/03/31 04:08:54;;;;;;;5.63;4.53;;;;;;;19.20;53.67;98307.06;5031784;28;20184;-62
2022/03/31 04:11:19;;;;;;;5.80;4.10;;;;;;;19.21;53.83;98307.88;5031788;28;20188;-62
2022/03/31 04:13:46;;;;;;;6.67;5.13;;;;;;;19.21;53.79;98305.81;5031607;28;20260;-62
2022/03/31 04:16:11;;;;;;;5.07;3.97;;;;;;;19.23;53.61;98309.09;5031494;28;20267;-62
2022/03/31 04:18:38;;;;;;;6.57;4.37;;;;;;;19.20;53.47;98304.22;5031513;28;20494;-62
2022/03/31 04:21:04;;;;;;;5.63;4.43;;;;;;;19.19;53.69;98302.59;5031583;28;20305;-62
2022/03/31 04:23:29;;;;;;;7.27;4.10;;;;;;;19.22;53.70;98298.88;5031378;28;20461;-62
2022/03/31 04:25:54;;;;;;;5.40;4.07;;;;;;;19.20;53.60;98303.38;5031487;28;20180;-62
2022/03/31 04:28:20;;;;;;;8.37;4.60;;;;;;;19.20;53.43;98295.63;5031482;28;20178;-62
2022/03/31 04:30:45;;;;;;;8.27;4.67;;;;;;;19.19;53.61;98296.88;5031673;28;20572;-62
2022/03/31 04:33:11;;;;;;;6.30;4.70;;;;;;;19.24;53.87;98287.81;5030875;28;20188;-62
2022/03/31 04:35:36;;;;;;;7.50;4.60;;;;;;;19.24;53.57;98293.56;5031250;28;20172;-62
2022/03/31 04:38:03;;;;;;;5.37;4.40;;;;;;;19.26;53.45;98296.78;5033541;28;20180;-62
2022/03/31 04:40:28;;;;;;;6.47;4.60;;;;;;;19.23;53.71;98291.13;5035624;28;20279;-62
2022/03/31 04:42:54;;;;;;;5.60;4.20;;;;;;;19.23;53.52;98291.94;5035031;28;20419;-62
2022/03/31 04:45:19;;;;;;;5.60;4.33;;;;;;;19.21;53.54;98290.72;5035307;28;20196;-62
2022/03/31 04:47:45;;;;;;;4.80;4.00;;;;;;;19.22;53.48;98293.16;5035070;28;20228;-62
2022/03/31 04:50:12;;;;;;;4.93;3.60;;;;;;;19.24;53.39;98295.59;5035304;28;20172;-62
2022/03/31 04:52:38;;;;;;;4.27;3.87;;;;;;;19.24;53.35;98292.72;5017361;28;20208;-62
2022/03/31 04:55:04;;;;;;;5.47;3.90;;;;;;;19.21;53.59;98294.38;5035229;28;20429;-62
2022/03/31 04:57:29;;;;;;;5.50;4.20;;;;;;;19.24;53.38;98287.81;5035211;28;20208;-62
2022/03/31 04:59:55;;;;;;;5.00;3.90;;;;;;;19.25;53.30;98298.03;5034919;28;20200;-62
2022/03/31 05:02:20;;;;;;;5.70;3.73;;;;;;;19.24;53.46;98292.72;5035116;28;20188;-62
2022/03/31 05:04:46;;;;;;;4.63;3.57;;;;;;;19.21;53.55;98290.72;5034702;28;20172;-62
2022/03/31 05:07:11;;;;;;;5.47;4.37;;;;;;;19.23;53.92;98293.97;5034950;28;20196;-62
2022/03/31 05:09:37;;;;;;;5.40;4.27;;;;;;;19.21;53.40;98288.66;5034987;28;20628;-62
2022/03/31 05:12:03;;;;;;;5.10;4.17;;;;;;;19.21;53.66;98291.50;5034533;28;20585;-62
2022/03/31 05:14:28;;;;;;;5.27;4.20;;;;;;;19.21;53.44;98297.25;5035046;28;20539;-62
2022/03/31 05:16:54;;;;;;;6.00;4.50;;;;;;;19.23;53.52;98289.06;5034437;28;20415;-62
2022/03/31 05:19:19;;;;;;;5.03;3.80;;;;;;;19.25;53.52;98289.44;5034907;28;20254;-62
2022/03/31 05:21:44;;;;;;;6.20;4.30;;;;;;;19.26;53.23;98288.19;5034611;28;20576;-62
2022/03/31 05:24:10;;;;;;;5.33;4.50;;;;;;;19.23;53.55;98285.41;5034655;28;20185;-62
2022/03/31 05:26:35;;;;;;;6.33;4.20;;;;;;;19.23;53.45;98291.13;5034591;28;20541;-62
2022/03/31 05:29:01;;;;;;;4.40;3.53;;;;;;;19.21;53.51;98294.38;5034676;28;20176;-62
2022/03/31 05:31:26;;;;;;;5.80;3.93;;;;;;;19.22;53.58;98290.28;5034248;28;20663;-62
2022/03/31 05:33:51;;;;;;;4.60;3.70;;;;;;;19.18;53.50;98283.81;5034551;28;20177;-62
2022/03/31 05:36:17;;;;;;;5.03;3.70;;;;;;;19.18;53.66;98289.53;5034437;28;20180;-62
2022/03/31 05:38:42;;;;;;;5.23;4.03;;;;;;;19.20;53.43;98289.09;5034439;28;20168;-62
2022/03/31 05:41:08;;;;;;;6.60;3.93;;;;;;;19.18;53.84;98285.84;5033887;28;20200;-62
2022/03/31 05:43:33;;;;;;;5.73;4.03;;;;;;;19.19;53.40;98279.72;5034221;28;20184;-62
2022/03/31 05:45:59;;;;;;;6.27;3.63;;;;;;;19.21;53.53;98274.34;5034058;28;20196;-62
2022/03/31 05:48:24;;;;;;;4.40;4.00;;;;;;;19.20;53.67;98280.50;5033399;28;20232;-62
2022/03/31 05:50:49;;;;;;;5.30;3.90;;;;;;;19.20;53.51;98274.78;5033611;28;20177;-62
2022/03/31 05:53:15;;;;;;;4.90;4.00;;;;;;;19.23;53.31;98280.50;5033741;28;20535;-62
2022/03/31 05:55:40;;;;;;;4.50;3.30;;;;;;;19.20;53.36;98280.50;5034064;28;20652;-62
2022/03/31 05:58:07;;;;;;;4.60;3.80;;;;;;;19.20;53.41;98275.59;5034186;28;20567;-62
2022/03/31 06:00:32;;;;;;;4.23;3.40;;;;;;;19.20;53.62;98278.47;5033634;28;20263;-62
2022/03/31 06:02:58;;;;;;;5.10;3.60;;;;;;;19.20;53.58;98274.78;5034020;28;20431;-62
2022/03/31 06:05:23;;;;;;;4.90;3.60;;;;;;;19.20;53.46;98274.78;5033819;28;20185;-62
2022/03/31 06:07:50;;;;;;;5.50;3.73;;;;;;;19.22;53.36;98281.72;5034052;28;20188;-62
2022/03/31 06:10:15;;;;;;;6.40;4.13;;;;;;;19.23;53.63;98280.50;5033678;28;20510;-62
2022/03/31 06:12:41;;;;;;;5.10;3.60;;;;;;;19.20;53.44;98278.47;5033790;28;20426;-62
2022/03/31 06:15:07;;;;;;;5.00;3.60;;;;;;;19.23;53.66;98289.06;5033495;28;20184;-62
2022/03/31 06:17:36;;;;;;;5.20;4.00;;;;;;;19.21;53.49;98282.94;5033705;28;20184;-62
2022/03/31 06:20:01;;;;;;;4.70;3.70;;;;;;;19.23;53.19;98282.53;5033333;28;20459;-62
2022/03/31 06:22:26;;;;;;;4.70;3.70;;;;;;;19.22;53.39;98278.84;5033720;28;20418;-62
2022/03/31 06:24:52;;;;;;;5.20;3.93;;;;;;;19.21;53.39;98282.94;5033455;28;20686;-62
2022/03/31 06:27:17;;;;;;;5.10;3.53;;;;;;;19.18;53.42;98283.81;5033227;28;20176;-62
2022/03/31 06:29:45;;;;;;;6.50;3.90;;;;;;;19.20;53.53;98283.34;5025946;28;20181;-62
2022/03/31 06:32:12;;;;;;;5.00;3.60;;;;;;;19.18;53.75;98283.81;5031098;28;20463;-62
2022/03/31 06:34:38;;;;;;;5.50;3.97;;;;;;;19.21;53.54;98276.41;5032509;28;20423;-62
2022/03/31 06:37:03;;;;;;;4.07;3.40;;;;;;;19.21;53.58;98276.41;5033239;28;20426;-62
2022/03/31 06:39:29;;;;;;;5.37;4.00;;;;;;;19.18;53.57;98269.50;5033339;28;20177;-62
2022/03/31 06:41:54;;;;;;;4.73;3.73;;;;;;;19.20;53.38;98269.88;5032861;28;20196;-62
2022/03/31 06:44:21;;;;;;;5.23;4.10;;;;;;;19.20;53.42;98275.59;5033013;28;20176;-62
2022/03/31 06:46:46;;;;;;;4.90;3.77;;;;;;;19.20;53.13;98278.47;5032748;28;20221;-62
2022/03/31 06:49:12;;;;;;;5.17;3.97;;;;;;;19.22;53.35;98276.00;5033170;28;20423;-62
2022/03/31 06:51:37;;;;;;;4.47;3.20;;;;;;;19.20;53.83;98281.31;5033142;28;20175;-62
2022/03/31 06:54:03;;;;;;;4.87;3.63;;;;;;;19.22;53.32;98284.56;5032702;28;20180;-62
2022/03/31 06:56:29;;;;;;;4.43;3.37;;;;;;;19.20;53.43;98284.19;5032594;28;20250;-62
2022/03/31 06:58:54;;;;;;;4.87;3.87;;;;;;;19.22;53.30;98278.84;5033064;28;20188;-62
2022/03/31 07:01:20;;;;;;;4.23;3.30;;;;;;;19.18;53.36;98275.25;5032445;28;20192;-62
2022/03/31 07:03:45;;;;;;;4.23;3.30;;;;;;;19.19;53.88;98274.00;5032957;28;20173;-62
2022/03/31 07:06:11;;;;;;;4.70;3.37;;;;;;;19.19;53.50;98274.00;5032639;28;20192;-62
2022/03/31 07:08:36;;;;;;;4.20;3.03;;;;;;;19.22;53.39;98278.84;5032683;28;20172;-62
2022/03/31 07:11:03;;;;;;;5.53;3.50;;;;;;;19.21;53.43;98265.75;5031826;28;20177;-62
2022/03/31 07:13:28;;;;;;;4.80;3.17;;;;;;;19.21;53.42;98280.06;5033064;28;20531;-62
2022/03/31 07:15:54;;;;;;;3.77;3.17;;;;;;;19.18;53.53;98275.25;5032430;28;20429;-62
2022/03/31 07:18:19;;;;;;;4.33;3.17;;;;;;;19.19;53.60;98284.59;5032589;28;20304;-62
2022/03/31 07:20:45;;;;;;;4.33;3.20;;;;;;;19.18;53.53;98280.97;5032340;28;20651;-62
2022/03/31 07:23:10;;;;;;;3.90;3.10;;;;;;;19.19;53.36;98279.72;5032395;28;20662;-62
2022/03/31 07:25:36;;;;;;;5.00;3.67;;;;;;;19.21;53.47;98273.56;5032403;28;20700;-62
2022/03/31 07:28:01;;;;;;;4.67;3.33;;;;;;;19.23;53.29;98276.81;5032586;28;20184;-62
2022/03/31 07:30:27;;;;;;;4.73;3.50;;;;;;;19.20;53.40;98274.78;5014539;28;20214;-62
2022/03/31 07:32:54;;;;;;;5.20;3.30;;;;;;;19.19;53.37;98268.25;5014574;28;20614;-62
2022/03/31 07:35:21;;;;;;;4.17;2.90;;;;;;;19.19;53.40;98273.16;5032216;28;20640;-62
2022/03/31 07:37:46;;;;;;;4.73;3.40;;;;;;;19.22;53.27;98267.41;5014813;28;20415;-62
2022/03/31 07:40:12;;;;;;;5.03;3.60;;;;;;;19.22;53.42;98269.47;5032006;28;20850;-62
2022/03/31 07:42:38;;;;;;;4.27;3.40;;;;;;;19.19;53.41;98267.44;5032262;28;20180;-62
2022/03/31 07:45:04;;;;;;;4.37;3.50;;;;;;;19.18;53.16;98268.69;5031583;28;20249;-62
2022/03/31 07:47:29;;;;;;;4.60;3.30;;;;;;;19.20;53.48;98272.75;5032041;28;20581;-62
2022/03/31 07:49:55;;;;;;;4.53;3.33;;;;;;;19.17;53.54;98267.88;5031969;28;20461;-62
2022/03/31 07:52:21;;;;;;;3.93;3.07;;;;;;;19.15;53.64;98270.38;5031007;28;20180;-62
2022/03/31 07:54:48;;;;;;;4.50;3.37;;;;;;;19.19;53.16;98264.59;5030764;28;20164;-62
2022/03/31 07:57:13;;;;;;;4.37;2.90;;;;;;;19.18;53.64;98266.66;5032009;28;20902;-62
2022/03/31 07:59:38;;;;;;;4.13;3.10;;;;;;;19.17;53.44;98267.88;5014121;28;20473;-62
2022/03/31 08:02:04;;;;;;;4.20;3.40;;;;;;;19.19;53.44;98274.00;5031808;28;20212;-62
2022/03/31 08:04:29;;;;;;;3.50;3.00;;;;;;;19.20;53.45;98275.59;5031972;28;20176;-62
2022/03/31 08:06:55;;;;;;;4.97;3.50;;;;;;;19.18;53.24;98271.56;5031462;28;20169;-62
2022/03/31 08:09:21;;;;;;;3.73;2.87;;;;;;;19.18;53.26;98266.66;5032026;28;20189;-62
2022/03/31 08:11:49;;;;;;;3.90;2.90;;;;;;;19.21;53.17;98265.75;5031236;28;20181;-62
2022/03/31 08:14:16;;;;;;;3.87;3.03;;;;;;;19.19;53.27;98262.53;5031803;28;20212;-62
2022/03/31 08:16:46;;;;;;;4.20;3.00;;;;;;;19.16;53.33;98259.75;5031437;28;20415;-62
2022/03/31 08:19:15;;;;;;;3.97;3.00;;;;;;;19.22;53.42;98261.69;5031646;28;20818;-62
2022/03/31 08:21:42;;;;;;;3.70;2.83;;;;;;;19.18;53.24;98260.94;5031434;28;20545;-62
2022/03/31 08:24:08;;;;;;;3.70;2.63;;;;;;;19.18;53.27;98260.13;5031889;28;20419;-62
2022/03/31 08:26:34;;;;;;;3.57;3.17;;;;;;;19.20;53.42;98264.16;5031494;28;20506;-62
2022/03/31 08:28:59;;;;;;;4.53;3.20;;;;;;;19.19;53.38;98264.59;5031637;28;20882;-62
2022/03/31 08:31:25;;;;;;;5.10;3.10;;;;;;;19.17;53.39;98261.38;5031108;28;20588;-62
2022/03/31 08:33:50;;;;;;;4.10;2.90;;;;;;;19.18;53.18;98260.94;5030679;28;20184;-62
2022/03/31 08:36:16;;;;;;;3.77;2.63;;;;;;;19.16;53.52;98263.41;5030964;28;20200;-62
2022/03/31 08:38:43;;;;;;;5.67;3.10;;;;;;;19.18;53.23;98255.22;5031583;28;20176;-62
2022/03/31 08:41:08;;;;;;;3.70;3.00;;;;;;;19.20;53.32;98251.91;5031133;28;20621;-62
2022/03/31 08:43:35;;;;;;;3.77;2.60;;;;;;;19.20;53.11;98252.72;5031670;28;20416;-62
2022/03/31 08:46:01;;;;;;;3.70;2.87;;;;;;;19.18;53.36;98255.22;5013806;28;20194;-62
2022/03/31 08:48:26;;;;;;;4.33;3.20;;;;;;;19.17;53.51;98247.84;5030824;28;20463;-62
2022/03/31 08:50:52;;;;;;;3.50;2.90;;;;;;;19.17;53.44;98252.78;4996632;28;20172;-62
2022/03/31 08:53:17;;;;;;;4.00;2.93;;;;;;;19.19;53.28;98264.59;5031545;28;20196;-62
2022/03/31 08:55:43;;;;;;;3.63;2.90;;;;;;;19.17;53.41;98259.28;5031190;28;20176;-62
2022/03/31 08:58:09;;;;;;;3.80;3.00;;;;;;;19.17;53.49;98253.56;5031340;28;20592;-62
2022/03/31 09:00:34;;;;;;;3.40;2.80;;;;;;;19.17;53.34;98258.50;5031343;28;20631;-62
2022/03/31 09:03:03;;;;;;;4.07;3.00;;;;;;;19.16;53.17;98256.91;5031240;28;20207;-62
2022/03/31 09:05:45;;;;;;;4.07;2.87;;;;;;;19.17;53.29;98252.78;5013465;28;20667;-62
2022/03/31 09:08:11;;;;;;;5.13;3.60;;;;;;;19.17;53.16;98267.88;5031240;28;20442;-62
2022/03/31 09:10:47;;;;;;;3.90;3.00;;;;;;;19.16;53.58;98254.81;5031071;28;20411;-62
2022/03/31 09:13:34;;;;;;;3.80;3.10;;;;;;;19.15;53.46;98267.50;5031326;28;20415;-62
2022/03/31 09:16:08;;;;;;;4.30;3.30;;;;;;;19.16;53.19;98263.41;5031079;28;20890;-62
2022/03/31 09:18:34;;;;;;;3.80;2.90;;;;;;;19.15;53.38;98258.94;5021078;28;20449;-62
2022/03/31 09:21:01;;;;;;;3.77;2.73;;;;;;;19.15;53.29;98258.09;5012949;28;20493;-62
2022/03/31 09:23:32;;;;;;;4.27;2.60;;;;;;;19.16;53.28;98268.34;5032152;28;20180;-62
2022/03/31 09:26:09;;;;;;;3.67;2.73;;;;;;;19.14;53.26;98265.91;5034808;28;20461;-62
2022/03/31 09:28:36;;;;;;;3.73;3.10;;;;;;;19.12;53.39;98262.66;5035146;28;20399;-62
2022/03/31 09:31:02;;;;;;;4.73;3.10;;;;;;;19.13;53.60;98258.56;5017038;28;20446;-62
2022/03/31 09:33:39;;;;;;;3.90;2.67;;;;;;;19.12;53.24;98262.66;5034650;28;20976;-62
2022/03/31 09:36:06;;;;;;;4.07;2.80;;;;;;;19.13;53.47;98249.16;5034504;28;20172;-62
2022/03/31 09:38:38;;;;;;;4.53;2.87;;;;;;;19.16;53.32;98256.91;5034436;28;20418;-62
2022/03/31 09:41:27;;;;;;;3.93;3.00;;;;;;;19.15;53.33;98250.34;5034519;28;20468;-62
2022/03/31 09:43:53;;;;;;;3.47;2.90;;;;;;;19.14;53.51;98262.22;5034673;28;20423;-62
2022/03/31 09:46:23;;;;;;;5.60;3.37;;;;;;;19.14;53.39;98254.47;5015874;28;20470;-62
2022/03/31 09:48:49;;;;;;;5.10;3.30;;;;;;;19.14;53.52;98260.19;5034366;28;20411;-62
2022/03/31 09:51:15;;;;;;;3.73;2.57;;;;;;;19.16;53.16;98260.53;5034027;28;20462;-62
2022/03/31 09:53:42;;;;;;;4.93;2.83;;;;;;;19.15;53.41;98261.78;5032999;28;20600;-62
2022/03/31 09:56:08;;;;;;;3.17;2.60;;;;;;;19.16;53.18;98257.69;5034051;28;20438;-62
2022/03/31 09:58:36;;;;;;;3.77;2.77;;;;;;;19.15;53.30;98260.97;5034279;28;20172;-62
2022/03/31 10:01:03;;;;;;;3.40;2.43;;;;;;;19.15;53.25;98266.69;5000093;28;20578;-62
2022/03/31 10:03:28;;;;;;;3.27;2.30;;;;;;;19.15;53.61;98258.94;5016232;28;20569;-62
2022/03/31 10:05:54;;;;;;;4.30;3.30;;;;;;;19.15;53.24;98258.09;5034251;28;20415;-62
2022/03/31 10:08:19;;;;;;;3.07;2.33;;;;;;;19.12;53.47;98254.06;5032916;28;20675;-62
2022/03/31 10:10:46;;;;;;;3.70;2.87;;;;;;;19.14;53.31;98253.63;5016287;28;20196;-62
2022/03/31 10:13:24;;;;;;;4.10;3.03;;;;;;;19.14;53.53;98253.63;5033878;28;20242;-62
2022/03/31 10:15:59;;;;;;;3.90;2.53;;;;;;;19.15;53.21;98247.50;5014757;28;20945;-62
2022/03/31 10:18:25;;;;;;;5.03;2.90;;;;;;;19.15;53.00;98244.63;5016273;28;20822;-62
2022/03/31 10:20:56;;;;;;;3.33;2.40;;;;;;;19.13;53.18;98244.28;5015942;28;20466;-62
2022/03/31 10:26:06;;;;;;;3.60;2.50;;;;;;;19.13;53.39;98241.41;5019347;28;20478;-62
2022/03/31 10:28:31;;;;;;;3.60;2.40;;;;;;;19.15;53.17;98238.09;5013476;28;20420;-62
2022/03/31 10:30:59;;;;;;;3.17;2.27;;;;;;;19.13;53.22;98238.53;5015661;28;20172;-62
2022/03/31 10:33:38;;;;;;;4.27;2.80;;;;;;;19.14;53.38;98231.56;5032972;28;20177;-62
2022/03/31 10:36:09;;;;;;;4.10;2.70;;;;;;;19.16;53.10;98240.53;5015192;28;20427;-62
2022/03/31 10:38:35;;;;;;;3.83;2.53;;;;;;;19.16;53.19;98236.88;5033350;28;20423;-62
2022/03/31 10:41:02;;;;;;;3.43;2.77;;;;;;;19.15;53.24;98238.91;5014873;28;20455;-62
2022/03/31 10:43:31;;;;;;;3.93;2.70;;;;;;;19.15;53.26;98238.91;5032635;28;20199;-62
2022/03/31 10:45:59;;;;;;;3.60;2.67;;;;;;;19.13;53.03;98232.81;5033202;28;20514;-62
2022/03/31 10:48:25;;;;;;;3.53;2.63;;;;;;;19.15;53.15;98238.91;5033067;28;20470;-62
2022/03/31 10:51:01;;;;;;;4.33;2.30;;;;;;;19.15;53.27;98238.91;5033200;28;20415;-62
2022/03/31 10:53:27;;;;;;;3.57;2.57;;;;;;;19.14;53.35;98231.56;5032803;28;20545;-62
2022/03/31 10:55:55;;;;;;;3.53;2.10;;;;;;;19.15;53.26;98229.50;5032921;28;20519;-62
2022/03/31 10:58:30;;;;;;;3.73;2.27;;;;;;;19.15;53.16;98230.31;5032922;28;20418;-62
2022/03/31 11:00:57;;;;;;;2.87;2.30;;;;;;;19.14;53.39;98225.84;5032525;28;21053;-62
2022/03/31 11:03:23;;;;;;;3.13;2.40;;;;;;;19.15;53.39;98223.78;5033032;28;20419;-62
2022/03/31 11:05:49;;;;;;;3.63;2.77;;;;;;;19.14;53.22;98225.03;5033053;28;20477;-62
2022/03/31 11:08:17;;;;;;;3.10;2.30;;;;;;;19.14;53.21;98210.72;5015074;28;20176;-62
2022/03/31 11:10:47;;;;;;;3.73;2.33;;;;;;;19.14;53.26;98220.13;5032764;28;20242;-62
2022/03/31 11:13:15;;;;;;;3.73;2.57;;;;;;;19.14;53.18;98216.47;5033088;28;20419;-62
2022/03/31 11:15:41;;;;;;;3.20;2.57;;;;;;;19.13;53.22;98207.09;5032607;28;20426;-62
2022/03/31 11:18:07;;;;;;;3.13;2.47;;;;;;;19.16;53.08;98209.06;5032077;28;20419;-62
2022/03/31 11:20:32;;;;;;;3.63;2.57;;;;;;;19.12;53.33;98216.88;5032557;28;20203;-62
2022/03/31 11:23:03;;;;;;;3.97;2.80;;;;;;;19.13;53.22;98215.66;5032416;28;20423;-62
2022/03/31 11:25:29;;;;;;;3.30;2.40;;;;;;;19.14;53.52;98202.97;5032555;28;20177;-62
2022/03/31 11:27:56;;;;;;;4.27;2.90;;;;;;;19.15;53.20;98206.63;5032445;28;20427;-62
2022/03/31 11:30:24;;;;;;;2.83;2.00;;;;;;;19.15;53.14;98207.44;5032247;28;20168;-62
2022/03/31 11:32:53;;;;;;;2.80;2.20;;;;;;;19.13;53.18;98203.41;5032343;28;20440;-62
2022/03/31 11:35:20;;;;;;;2.97;2.20;;;;;;;19.15;53.16;98204.59;5032149;28;20415;-62
2022/03/31 11:37:51;;;;;;;3.93;2.70;;;;;;;19.14;53.27;98194.41;5031057;28;20442;-62